createdAt,value
2023-11-07T00:03:52.074Z,85.93
2023-11-07T00:07:53.866Z,85.44
2023-11-07T00:11:56.620Z,81.48
2023-11-07T00:15:58.346Z,83.29
2023-11-07T00:20:01.194Z,82.75
2023-11-07T00:24:04.148Z,81.40
2023-11-07T00:28:06.434Z,81.88
2023-11-07T00:32:08.436Z,84.38
2023-11-07T00:36:12.187Z,83.48
2023-11-07T00:40:14.165Z,81.88
2023-11-07T00:44:16.326Z,87.73
2023-11-07T00:48:18.418Z,84.96
2023-11-07T00:52:20.216Z,83.10
2023-11-07T00:56:22.015Z,84.68
2023-11-07T01:00:23.841Z,85.29
2023-11-07T01:04:25.758Z,87.37
2023-11-07T01:08:28.410Z,85.80
2023-11-07T01:12:30.079Z,84.60
2023-11-07T01:16:31.807Z,85.52
2023-11-07T01:20:34.491Z,83.86
2023-11-07T01:24:36.310Z,85.88
2023-11-07T01:28:40.758Z,84.20
2023-11-07T01:32:43.746Z,85.55
2023-11-07T01:36:45.673Z,86.01
2023-11-07T01:40:53.919Z,84.87
2023-11-07T01:44:55.882Z,85.43
2023-11-07T01:48:58.095Z,86.10
2023-11-07T01:53:00.915Z,83.74
2023-11-07T01:57:03.574Z,85.97
2023-11-07T02:01:06.265Z,88.18
2023-11-07T02:05:10.920Z,86.23
2023-11-07T02:09:12.569Z,85.46
2023-11-07T02:13:14.285Z,86.92
2023-11-07T02:17:16.005Z,87.04
2023-11-07T02:21:18.283Z,86.21
2023-11-07T02:25:20.196Z,85.30
2023-11-07T02:29:22.366Z,86.42
2023-11-07T02:33:24.542Z,85.07
2023-11-07T02:37:26.386Z,85.36
2023-11-07T02:41:29.058Z,86.26
2023-11-07T02:45:31.888Z,82.94
2023-11-07T02:49:33.625Z,85.77
2023-11-07T02:53:35.367Z,84.92
2023-11-07T02:57:39.162Z,86.47
2023-11-07T03:01:42.482Z,87.49
2023-11-07T03:05:45.671Z,87.19
2023-11-07T03:09:48.653Z,91.80
2023-11-07T03:13:50.483Z,92.94
2023-11-07T03:17:52.499Z,91.98
2023-11-07T03:21:54.430Z,93.43
2023-11-07T03:25:56.962Z,94.43
2023-11-07T03:29:58.570Z,92.83
2023-11-07T03:34:00.882Z,91.75
2023-11-07T03:38:02.958Z,89.47
2023-11-07T03:42:06.096Z,88.43
2023-11-07T03:46:08.213Z,90.63
2023-11-07T03:50:11.711Z,89.77
2023-11-07T03:54:14.721Z,91.37
2023-11-07T03:58:16.515Z,92.04
2023-11-07T04:02:20.272Z,92.47
2023-11-07T04:06:24.230Z,89.73
2023-11-07T04:10:26.495Z,90.98
2023-11-07T04:14:28.161Z,92.44
2023-11-07T04:18:30.563Z,92.66
2023-11-07T04:22:32.774Z,92.73
2023-11-07T04:26:34.931Z,88.65
2023-11-07T04:30:36.699Z,91.92
2023-11-07T04:34:38.421Z,89.22
2023-11-07T04:38:42.734Z,91.76
2023-11-07T04:42:44.556Z,88.18
2023-11-07T04:46:48.320Z,91.34
2023-11-07T04:50:50.449Z,91.80
2023-11-07T04:54:52.241Z,91.43
2023-11-07T04:58:57.526Z,88.92
2023-11-07T05:03:00.953Z,90.57
2023-11-07T05:07:02.973Z,92.21
2023-11-07T05:11:04.916Z,91.46
2023-11-07T05:15:08.672Z,91.96
2023-11-07T05:19:10.906Z,92.18
2023-11-07T05:23:12.806Z,90.77
2023-11-07T05:27:15.046Z,92.76
2023-11-07T05:31:18.701Z,90.92
2023-11-07T05:35:21.081Z,90.42
2023-11-07T05:39:29.000Z,93.09
2023-11-07T05:43:32.181Z,89.93
2023-11-07T05:47:34.204Z,89.91
2023-11-07T05:51:36.294Z,89.07
2023-11-07T05:55:38.557Z,90.43
2023-11-07T05:59:40.193Z,91.56
2023-11-07T06:03:41.875Z,90.10
2023-11-07T06:07:43.741Z,90.16
2023-11-07T06:11:45.821Z,90.71
2023-11-07T06:15:47.637Z,95.23
2023-11-07T06:19:50.191Z,89.31
2023-11-07T06:23:52.079Z,89.47
2023-11-07T06:27:54.353Z,86.57
2023-11-07T06:31:57.115Z,87.69
2023-11-07T06:35:59.079Z,89.64
2023-11-07T06:40:08.194Z,87.05
2023-11-07T06:44:10.017Z,91.39
2023-11-07T06:48:12.019Z,89.99
2023-11-07T06:52:13.729Z,85.39
2023-11-07T06:56:15.340Z,88.24
2023-11-07T07:00:17.558Z,91.27
2023-11-07T07:04:19.339Z,92.84
2023-11-07T07:08:25.461Z,90.63
2023-11-07T07:12:27.160Z,87.74
2023-11-07T07:16:31.527Z,87.32
2023-11-07T07:20:37.948Z,88.81
2023-11-07T07:24:40.995Z,85.04
2023-11-07T07:28:42.874Z,84.54
2023-11-07T07:32:46.635Z,82.90
2023-11-07T07:36:49.188Z,85.28
2023-11-07T07:40:51.033Z,84.51
2023-11-07T07:44:53.053Z,84.15
2023-11-07T07:48:57.683Z,81.34
2023-11-07T07:53:02.753Z,82.95
2023-11-07T07:57:09.676Z,84.33
2023-11-07T08:01:11.469Z,83.07
2023-11-07T08:05:18.408Z,82.49
2023-11-07T08:09:21.174Z,81.19
2023-11-07T08:13:23.517Z,79.93
2023-11-07T08:17:25.206Z,79.84
2023-11-07T08:21:27.236Z,78.81
2023-11-07T08:25:29.391Z,78.77
2023-11-07T08:29:31.159Z,78.17
2023-11-07T08:33:33.211Z,76.92
2023-11-07T08:37:35.379Z,77.05
2023-11-07T08:41:37.612Z,76.08
2023-11-07T08:45:42.163Z,74.84
2023-11-07T08:49:43.819Z,74.60
2023-11-07T08:53:45.634Z,75.94
2023-11-07T08:57:50.043Z,72.86
2023-11-07T09:01:52.548Z,72.30
2023-11-07T09:05:56.234Z,74.34
2023-11-07T09:09:58.646Z,73.08
2023-11-07T09:14:00.610Z,77.51
2023-11-07T09:18:02.792Z,77.54
2023-11-07T09:22:08.378Z,75.91
2023-11-07T09:26:10.354Z,76.66
2023-11-07T09:30:13.382Z,79.82
2023-11-07T09:34:16.346Z,76.65
2023-11-07T09:38:18.066Z,77.93
2023-11-07T09:42:19.859Z,74.62
2023-11-07T09:46:24.269Z,79.89
2023-11-07T09:50:27.635Z,71.09
2023-11-07T09:54:31.195Z,71.05
2023-11-07T09:58:33.950Z,72.54
2023-11-07T10:02:36.775Z,71.91
2023-11-07T10:06:38.533Z,70.65
2023-11-07T10:10:43.379Z,68.98
2023-11-07T10:14:45.351Z,65.54
2023-11-07T10:18:49.667Z,66.49
2023-11-07T10:22:53.130Z,66.19
2023-11-07T10:27:01.980Z,68.58
2023-11-07T10:31:03.765Z,68.13
2023-11-07T10:35:08.100Z,64.09
2023-11-07T10:39:22.675Z,65.21
2023-11-07T10:43:40.768Z,63.88
2023-11-07T10:47:43.171Z,63.92
2023-11-07T10:51:47.880Z,64.63
2023-11-07T10:55:56.081Z,66.91
2023-11-07T11:00:11.744Z,66.09
2023-11-07T11:04:14.978Z,66.89
2023-11-07T11:08:22.569Z,67.56
2023-11-07T11:12:25.887Z,67.00
2023-11-07T11:16:29.908Z,66.93
2023-11-07T11:20:54.598Z,64.08
2023-11-07T11:25:32.454Z,63.26
2023-11-07T11:29:34.536Z,62.91
2023-11-07T11:33:37.827Z,62.91
2023-11-07T11:38:24.475Z,64.86
2023-11-07T11:43:05.256Z,61.96
2023-11-07T11:47:10.416Z,61.85
2023-11-07T11:51:33.934Z,62.07
2023-11-07T11:56:05.554Z,64.28
2023-11-07T12:00:08.148Z,60.95
2023-11-07T12:04:32.434Z,61.80
2023-11-07T12:08:39.514Z,62.73
2023-11-07T12:12:42.040Z,62.35
2023-11-07T12:16:56.810Z,61.39
2023-11-07T12:20:58.629Z,63.93
2023-11-07T12:25:13.090Z,61.25
2023-11-07T12:29:15.363Z,61.41
2023-11-07T12:33:17.044Z,62.09
2023-11-07T12:37:21.375Z,66.00
2023-11-07T12:41:23.916Z,66.82
2023-11-07T12:45:28.515Z,66.47
2023-11-07T12:49:36.649Z,66.39
2023-11-07T12:53:49.192Z,65.56
2023-11-07T12:57:51.546Z,63.58
2023-11-07T13:01:54.230Z,63.94
2023-11-07T13:06:00.431Z,65.46
2023-11-07T13:10:12.768Z,68.64
2023-11-07T13:14:15.909Z,64.85
2023-11-07T13:18:18.813Z,69.69
2023-11-07T13:22:20.694Z,66.85
2023-11-07T13:26:24.203Z,65.66
2023-11-07T13:30:26.186Z,67.07
2023-11-07T13:34:28.194Z,66.45
2023-11-07T13:38:30.563Z,64.93
2023-11-07T13:42:32.516Z,66.25
2023-11-07T13:46:50.883Z,66.08
2023-11-07T13:50:52.755Z,64.22
2023-11-07T13:54:54.921Z,65.98
2023-11-07T13:58:58.012Z,64.17
2023-11-07T14:03:00.703Z,65.82
2023-11-07T14:07:02.453Z,68.09
2023-11-07T14:11:05.453Z,66.79
2023-11-07T14:15:07.852Z,67.33
2023-11-07T14:19:10.199Z,67.66
2023-11-07T14:23:12.202Z,68.36
2023-11-07T14:27:14.086Z,67.25
2023-11-07T14:31:15.920Z,67.21
2023-11-07T14:35:20.203Z,66.50
2023-11-07T14:39:22.357Z,66.32
2023-11-07T14:43:24.433Z,66.36
2023-11-07T14:47:48.767Z,66.31
2023-11-07T14:51:50.960Z,67.57
2023-11-07T14:55:53.774Z,65.26
2023-11-07T14:59:55.608Z,67.33
2023-11-07T15:03:57.477Z,67.99
2023-11-07T15:08:03.617Z,65.28
2023-11-07T15:12:05.956Z,68.01
2023-11-07T15:16:07.974Z,66.80
2023-11-07T15:20:10.979Z,69.92
2023-11-07T15:24:13.766Z,70.42
2023-11-07T15:28:17.696Z,67.84
2023-11-07T15:32:19.454Z,67.63
2023-11-07T15:36:22.258Z,68.40
2023-11-07T15:40:24.331Z,69.14
2023-11-07T15:44:26.065Z,71.75
2023-11-07T15:48:28.192Z,70.65
2023-11-07T15:52:31.738Z,70.69
2023-11-07T15:56:35.049Z,71.25
2023-11-07T16:00:37.066Z,73.20
2023-11-07T16:04:38.975Z,72.18
2023-11-07T16:08:40.796Z,73.30
2023-11-07T16:12:45.401Z,73.12
2023-11-07T16:16:47.061Z,73.72
2023-11-07T16:20:48.895Z,71.54
2023-11-07T16:24:50.761Z,71.01
2023-11-07T16:28:53.126Z,73.35
2023-11-07T16:32:55.129Z,71.94
2023-11-07T16:36:56.975Z,71.20
2023-11-07T16:40:58.699Z,71.03
2023-11-07T16:45:00.421Z,71.60
2023-11-07T16:49:05.170Z,72.11
2023-11-07T16:53:07.399Z,71.34
2023-11-07T16:57:09.865Z,71.89
2023-11-07T17:01:12.404Z,73.08
2023-11-07T17:05:14.373Z,74.58
2023-11-07T17:09:16.275Z,74.82
2023-11-07T17:13:20.920Z,73.19
2023-11-07T17:17:23.416Z,74.92
2023-11-07T17:21:25.087Z,73.69
2023-11-07T17:25:26.893Z,74.83
2023-11-07T17:29:28.747Z,75.08
2023-11-07T17:33:30.728Z,74.65
2023-11-07T17:37:33.254Z,74.10
2023-11-07T17:41:36.372Z,73.71
2023-11-07T17:45:38.385Z,73.92
2023-11-07T17:49:40.317Z,72.35
2023-11-07T17:53:42.313Z,69.06
2023-11-07T17:57:44.042Z,70.35
2023-11-07T18:01:46.149Z,70.97
2023-11-07T18:05:48.678Z,70.27
2023-11-07T18:09:50.981Z,71.46
2023-11-07T18:13:55.044Z,71.04
2023-11-07T18:17:57.572Z,71.64
2023-11-07T18:22:01.094Z,72.78
2023-11-07T18:26:03.711Z,72.07
2023-11-07T18:30:08.705Z,75.96
2023-11-07T18:34:20.555Z,74.28
2023-11-07T18:38:25.281Z,74.71
2023-11-07T18:42:31.476Z,72.96
2023-11-07T18:46:34.736Z,71.34
2023-11-07T18:50:37.319Z,70.68
2023-11-07T18:54:42.335Z,70.95
2023-11-07T18:58:44.069Z,70.63
2023-11-07T19:02:45.995Z,72.39
2023-11-07T19:06:48.574Z,73.71
2023-11-07T19:10:50.611Z,70.99
2023-11-07T19:14:52.424Z,72.46
2023-11-07T19:18:55.781Z,73.30
2023-11-07T19:23:00.299Z,72.37
2023-11-07T19:27:02.110Z,70.84
2023-11-07T19:31:04.094Z,72.50
2023-11-07T19:35:10.042Z,74.44
2023-11-07T19:39:12.277Z,76.06
2023-11-07T19:43:14.975Z,75.63
2023-11-07T19:47:17.550Z,76.99
2023-11-07T19:51:41.431Z,78.27
2023-11-07T19:55:43.837Z,80.16
2023-11-07T19:59:47.595Z,80.46
2023-11-07T20:03:49.449Z,80.98
2023-11-07T20:07:56.132Z,82.64
2023-11-07T20:12:00.537Z,83.16
2023-11-07T20:16:03.876Z,85.67
2023-11-07T20:20:07.512Z,86.43
2023-11-07T20:24:11.333Z,88.59
2023-11-07T20:28:13.188Z,84.53
2023-11-07T20:32:15.125Z,85.62
2023-11-07T20:36:19.099Z,87.26
2023-11-07T20:40:21.595Z,84.44
2023-11-07T20:44:31.692Z,84.45
2023-11-07T20:48:39.036Z,82.15
2023-11-07T20:53:00.094Z,86.73
2023-11-07T20:57:02.083Z,83.67
2023-11-07T21:01:04.098Z,83.63
2023-11-07T21:05:06.138Z,83.32
2023-11-07T21:09:09.345Z,84.90
2023-11-07T21:13:11.292Z,82.25
2023-11-07T21:17:13.587Z,83.12
2023-11-07T21:21:15.299Z,82.41
2023-11-07T21:25:17.056Z,84.58
2023-11-07T21:29:19.315Z,82.71
2023-11-07T21:33:21.293Z,83.43
2023-11-07T21:37:23.194Z,82.65
2023-11-07T21:41:26.517Z,84.05
2023-11-07T21:45:28.236Z,80.78
2023-11-07T21:49:30.920Z,82.76
2023-11-07T21:53:32.769Z,85.21
2023-11-07T21:57:37.390Z,84.26
2023-11-07T22:01:39.822Z,86.97
2023-11-07T22:05:41.685Z,84.47
2023-11-07T22:09:44.644Z,89.33
2023-11-07T22:13:46.347Z,87.98
2023-11-07T22:17:48.011Z,90.59
2023-11-07T22:21:49.714Z,88.85
2023-11-07T22:25:51.431Z,87.59
2023-11-07T22:29:53.166Z,92.20
2023-11-07T22:33:55.124Z,91.35
2023-11-07T22:37:57.302Z,92.31
2023-11-07T22:41:59.802Z,89.38
2023-11-07T22:46:01.749Z,91.51
2023-11-07T22:50:07.153Z,89.00
2023-11-07T22:54:09.005Z,92.66
2023-11-07T22:58:11.147Z,89.23
2023-11-07T23:02:12.997Z,87.62
2023-11-07T23:06:15.118Z,87.66
2023-11-07T23:10:17.064Z,88.91
2023-11-07T23:14:19.173Z,90.34
2023-11-07T23:18:21.751Z,89.42
2023-11-07T23:22:23.446Z,87.53
2023-11-07T23:26:31.100Z,87.96
2023-11-07T23:30:39.874Z,86.38
2023-11-07T23:34:41.726Z,87.45
2023-11-07T23:38:43.731Z,83.76
2023-11-07T23:42:46.193Z,86.01
2023-11-07T23:46:48.660Z,85.53
2023-11-07T23:50:50.953Z,87.28
2023-11-07T23:55:08.909Z,84.81
2023-11-07T23:59:11.651Z,84.55
